Terminal Aerodrome Forecast
Issued by NWS Louisville, KY

Home | Current Version | Previous Version | Text Only | Print | Product List | Glossary On
Versions: 1 2 3 4 5 6 7 8 9 10 11 12 13 14 15 16
000
FTUS43 KLMK 200500
TAFLEX
TAF
KLEX 200522Z 2006/2106 06005KT P6SM BKN200
     FM201000 VRB03KT P6SM SCT020 BKN050
     FM210100 VRB04KT P6SM SCT025=

USA.gov is the U.S. government's official web portal to all federal, state and local government web resources and services.